Time;durP1;ratioP1;P1;durP2;ratioP2;P2;SDS_P1;SDS_P2;PMS_P1;PMS_P2;Temp;Humidity;BMP_temperature;BMP_pressure;BME280_temperature;BME280_humidity;BME280_pressure;Samples;Min_cycle;Max_cycle;Signal;HPM_P1;HPM_P2
2021/07/02 00:05:24;;;;;;;39.38;18.13;;;;;;;15.56;100.00;100817.53;5062418;28;20037;-87
2021/07/02 00:09:02;;;;;;;32.80;17.15;;;;;;;15.55;100.00;100818.44;5059455;28;20036;-86
2021/07/02 00:11:46;;;;;;;29.73;16.77;;;;;;;15.55;100.00;100823.72;5061854;28;20041;-86
2021/07/02 00:18:35;;;;;;;30.45;17.20;;;;;;;15.53;100.00;100817.63;5072546;28;20100;-84
2021/07/02 00:21:21;;;;;;;34.35;16.23;;;;;;;15.51;100.00;100816.78;5066376;28;20041;-87
2021/07/02 00:24:12;;;;;;;31.85;16.42;;;;;;;15.50;100.00;100813.31;5051480;28;20041;-88
2021/07/02 00:30:46;;;;;;;36.45;17.67;;;;;;;15.46;100.00;100810.78;5061875;28;20052;-89
2021/07/02 00:37:24;;;;;;;38.72;15.98;;;;;;;15.50;100.00;100815.06;5044957;28;20033;-86
2021/07/02 00:40:24;;;;;;;32.60;16.70;;;;;;;15.43;100.00;100810.88;5061977;28;20071;-87
2021/07/02 00:46:35;;;;;;;42.85;17.95;;;;;;;15.42;100.00;100817.03;5073617;28;20052;-86
2021/07/02 00:52:47;;;;;;;42.17;19.25;;;;;;;15.39;100.00;100820.63;5070229;28;20037;-88
2021/07/02 00:59:02;;;;;;;37.10;16.67;;;;;;;15.36;100.00;100824.22;5060969;28;20120;-87
2021/07/02 01:01:29;;;;;;;37.75;17.60;;;;;;;15.33;100.00;100812.88;5050166;28;20104;-88
2021/07/02 01:03:57;;;;;;;41.65;18.45;;;;;;;15.32;100.00;100816.44;5046856;28;20052;-91
2021/07/02 01:06:24;;;;;;;40.67;18.38;;;;;;;15.31;100.00;100817.34;5051519;28;20075;-87
2021/07/02 01:08:51;;;;;;;31.58;17.08;;;;;;;15.30;100.00;100815.59;5039864;28;20049;-89
2021/07/02 01:11:18;;;;;;;45.15;19.27;;;;;;;15.29;100.00;100812.09;5051285;28;20318;-84
2021/07/02 01:13:46;;;;;;;41.33;19.23;;;;;;;15.25;100.00;100809.56;5071887;28;20037;-84
2021/07/02 01:16:13;;;;;;;32.95;16.55;;;;;;;15.21;100.00;100814.94;5071341;28;20048;-88
2021/07/02 01:18:44;;;;;;;31.75;17.00;;;;;;;15.19;100.00;100803.56;5060483;28;20118;-87
2021/07/02 01:21:13;;;;;;;38.50;18.15;;;;;;;15.21;100.00;100807.03;5073595;28;20041;-91
2021/07/02 01:23:42;;;;;;;41.20;17.42;;;;;;;15.21;100.00;100799.13;5064179;28;20040;-87
2021/07/02 01:26:10;;;;;;;41.50;17.45;;;;;;;15.20;100.00;100802.66;5064590;28;20044;-89
2021/07/02 01:28:37;;;;;;;42.38;19.65;;;;;;;15.24;100.00;100800.81;5066704;28;20401;-89
2021/07/02 01:31:05;;;;;;;40.70;19.20;;;;;;;15.22;100.00;100794.69;5058200;28;20044;-87
2021/07/02 01:33:35;;;;;;;45.55;19.60;;;;;;;15.18;100.00;100793.91;5033054;28;20056;-87
2021/07/02 01:36:16;;;;;;;40.03;20.30;;;;;;;15.14;100.00;100800.16;5059088;28;20044;-86
2021/07/02 01:38:43;;;;;;;39.70;19.05;;;;;;;15.14;100.00;100796.69;5056474;28;20070;-87
2021/07/02 01:41:13;;;;;;;37.15;17.13;;;;;;;15.11;100.00;100809.91;5079165;28;20165;-87
2021/07/02 01:43:40;;;;;;;46.95;20.02;;;;;;;15.09;100.00;100806.47;5057431;28;20058;-87
2021/07/02 01:46:20;;;;;;;40.30;18.70;;;;;;;15.07;100.00;100806.50;5073567;28;20036;-89
2021/07/02 01:49:07;;;;;;;38.40;17.70;;;;;;;15.07;100.00;100803.00;5060475;28;20466;-87
2021/07/02 01:51:37;;;;;;;56.85;19.88;;;;;;;15.09;100.00;100809.97;5048473;28;20043;-86
2021/07/02 01:55:11;;;;;;;33.08;15.35;;;;;;;15.10;100.00;100814.34;5053375;28;20036;-87
2021/07/02 01:58:21;;;;;;;33.13;17.27;;;;;;;15.13;100.00;100821.31;5093374;28;20040;-86
2021/07/02 02:00:49;;;;;;;32.75;17.95;;;;;;;15.13;100.00;100818.66;5065246;28;20063;-86
2021/07/02 02:03:26;;;;;;;35.03;17.77;;;;;;;15.12;100.00;100822.19;5069797;28;20044;-92
2021/07/02 02:05:54;;;;;;;32.42;16.95;;;;;;;15.11;100.00;100821.34;5061843;28;20709;-86
2021/07/02 02:08:22;;;;;;;36.42;17.13;;;;;;;15.10;100.00;100819.63;5078165;28;20052;-91
2021/07/02 02:10:49;;;;;;;39.08;18.73;;;;;;;15.07;100.00;100814.44;5088483;28;20040;-95
2021/07/02 02:13:16;;;;;;;32.55;16.13;;;;;;;15.04;100.00;100819.75;5095352;28;20056;-90
2021/07/02 02:15:56;;;;;;;36.45;17.92;;;;;;;15.05;100.00;100824.97;5070458;28;20049;-87
2021/07/02 02:18:40;;;;;;;30.30;16.05;;;;;;;15.03;100.00;100821.53;5075668;28;20421;-87
2021/07/02 02:21:08;;;;;;;38.47;17.88;;;;;;;15.02;100.00;100819.81;5052083;28;20040;-88
2021/07/02 02:23:50;;;;;;;32.22;15.07;;;;;;;15.01;100.00;100822.47;5056591;28;20045;-87
2021/07/02 02:26:18;;;;;;;38.20;18.20;;;;;;;14.98;100.00;100819.91;5061116;28;20385;-88
2021/07/02 02:28:49;;;;;;;32.42;17.70;;;;;;;14.97;100.00;100824.31;5070579;28;20117;-86
2021/07/02 02:31:23;;;;;;;33.45;17.63;;;;;;;14.94;100.00;100824.41;5082661;28;20053;-88
2021/07/02 02:33:56;;;;;;;36.60;18.10;;;;;;;14.96;100.00;100819.09;5048331;28;20482;-87
2021/07/02 02:36:23;;;;;;;37.40;16.05;;;;;;;14.96;100.00;100827.00;5070380;28;20199;-91
2021/07/02 02:38:53;;;;;;;33.50;16.67;;;;;;;14.95;100.00;100823.47;5046848;28;20044;-91
2021/07/02 02:41:25;;;;;;;36.67;17.55;;;;;;;14.94;100.00;100827.03;5064366;28;20513;-87
2021/07/02 02:43:54;;;;;;;28.30;15.93;;;;;;;14.94;100.00;100826.16;5065993;28;20028;-88
2021/07/02 02:46:21;;;;;;;31.95;17.75;;;;;;;14.93;100.00;100825.31;5067846;28;20071;-89
2021/07/02 02:48:50;;;;;;;32.97;17.45;;;;;;;14.96;100.00;100834.91;5055271;28;20046;-89
2021/07/02 02:51:19;;;;;;;32.17;17.80;;;;;;;14.95;100.00;100849.84;5073314;28;20474;-86
2021/07/02 02:53:47;;;;;;;33.95;18.27;;;;;;;14.95;100.00;100843.72;5063590;28;20060;-86
2021/07/02 02:56:15;;;;;;;35.80;17.08;;;;;;;14.93;100.00;100843.75;5053193;28;20044;-85
2021/07/02 02:58:44;;;;;;;38.47;18.60;;;;;;;14.91;100.00;100842.91;5060776;28;21408;-86
2021/07/02 03:01:12;;;;;;;37.78;17.48;;;;;;;14.87;100.00;100852.69;5058409;28;20060;-91
2021/07/02 03:03:39;;;;;;;34.80;16.48;;;;;;;14.85;100.00;100856.25;5048409;28;20493;-86
2021/07/02 03:06:07;;;;;;;35.72;17.20;;;;;;;14.88;100.00;100853.53;5060566;28;20056;-88
2021/07/02 03:08:34;;;;;;;39.33;16.55;;;;;;;14.87;100.00;100855.31;5050494;28;20040;-86
2021/07/02 03:11:02;;;;;;;32.25;17.58;;;;;;;14.87;100.00;100865.88;5072848;28;20048;-89
2021/07/02 03:13:29;;;;;;;36.75;18.48;;;;;;;14.86;100.00;100860.59;5042711;28;20048;-86
2021/07/02 03:15:57;;;;;;;37.33;17.77;;;;;;;14.82;100.00;100866.84;5047992;28;20052;-87
2021/07/02 03:18:23;;;;;;;35.90;18.05;;;;;;;14.81;100.00;100867.75;5067163;28;20621;-86
2021/07/02 03:20:53;;;;;;;31.08;16.70;;;;;;;14.79;100.00;100867.78;5064170;28;20066;-87
2021/07/02 03:23:19;;;;;;;32.58;18.42;;;;;;;14.82;100.00;100861.56;5052251;28;20044;-90
2021/07/02 03:25:57;;;;;;;35.30;16.33;;;;;;;14.82;100.00;100872.13;5033165;28;20083;-88
2021/07/02 03:28:26;;;;;;;33.92;17.13;;;;;;;14.84;100.00;100878.25;5065822;28;20048;-88
2021/07/02 03:30:56;;;;;;;41.03;17.52;;;;;;;14.81;100.00;100876.53;5060734;28;20052;-85
2021/07/02 03:33:22;;;;;;;39.53;18.85;;;;;;;14.81;100.00;100875.66;5080917;28;20441;-92
2021/07/02 03:35:54;;;;;;;26.08;14.43;;;;;;;14.81;100.00;100870.38;5055487;28;20081;-87
2021/07/02 03:38:25;;;;;;;25.65;15.93;;;;;;;14.81;100.00;100875.66;5108342;27;20056;-94
2021/07/02 03:40:54;;;;;;;27.80;16.27;;;;;;;14.80;100.00;100880.06;5076424;28;20062;-86
2021/07/02 03:43:24;;;;;;;30.73;17.33;;;;;;;14.79;100.00;100883.59;5053998;28;20041;-87
2021/07/02 03:46:01;;;;;;;33.28;17.05;;;;;;;14.77;100.00;100888.06;5087986;28;20040;-87
2021/07/02 03:48:31;;;;;;;28.52;17.58;;;;;;;14.78;100.00;100879.22;5049799;28;20036;-87
2021/07/02 03:50:58;;;;;;;37.80;15.93;;;;;;;14.81;100.00;100884.44;5059873;28;20048;-89
2021/07/02 03:53:31;;;;;;;32.70;17.20;;;;;;;14.79;100.00;100891.50;5078650;28;20075;-93
2021/07/02 03:55:58;;;;;;;37.05;17.50;;;;;;;14.79;100.00;100891.50;5072273;28;20059;-91
2021/07/02 03:58:26;;;;;;;34.55;18.75;;;;;;;14.77;100.00;100890.69;5086183;28;20119;-88
2021/07/02 04:00:58;;;;;;;35.35;18.02;;;;;;;14.77;100.00;100898.59;5087531;28;20121;-87
2021/07/02 04:03:27;;;;;;;28.40;16.90;;;;;;;14.78;100.00;100889.78;5052563;28;20174;-88
2021/07/02 04:06:07;;;;;;;40.50;16.77;;;;;;;14.78;100.00;100891.53;5060946;28;20485;-88
2021/07/02 04:08:35;;;;;;;36.55;17.75;;;;;;;14.78;100.00;100891.53;5053907;28;20045;-88
2021/07/02 04:11:03;;;;;;;40.17;17.50;;;;;;;14.78;100.00;100895.03;5061396;28;20147;-85
2021/07/02 04:13:30;;;;;;;38.22;19.10;;;;;;;14.77;100.00;100897.72;5035163;28;20041;-92
2021/07/02 04:15:58;;;;;;;36.38;16.88;;;;;;;14.77;100.00;100901.22;5041031;28;20049;-86
2021/07/02 04:18:27;;;;;;;37.65;16.65;;;;;;;14.77;100.00;100897.72;5030756;28;20049;-91
2021/07/02 04:20:56;;;;;;;31.50;15.95;;;;;;;14.79;100.00;100899.41;5044113;28;20131;-90
2021/07/02 04:23:23;;;;;;;32.13;16.38;;;;;;;14.80;100.00;100903.78;5047640;28;20479;-86
2021/07/02 04:25:51;;;;;;;36.17;18.48;;;;;;;14.80;100.00;100911.69;5027576;28;20099;-86
2021/07/02 04:28:21;;;;;;;34.03;15.50;;;;;;;14.81;100.00;100915.19;5047686;28;20752;-87
2021/07/02 04:30:50;;;;;;;35.13;17.85;;;;;;;14.80;100.00;100918.75;5050169;28;20055;-86
2021/07/02 04:33:17;;;;;;;33.90;16.85;;;;;;;14.80;100.00;100916.97;5071225;28;20124;-86
2021/07/02 04:35:48;;;;;;;37.13;17.17;;;;;;;14.79;100.00;100922.28;5055890;28;20110;-85
2021/07/02 04:38:16;;;;;;;36.35;16.00;;;;;;;14.82;100.00;100928.34;5048116;28;20040;-85
2021/07/02 04:40:45;;;;;;;27.55;15.10;;;;;;;14.82;100.00;100923.09;5028028;28;20469;-85
2021/07/02 04:43:12;;;;;;;41.17;15.90;;;;;;;14.84;99.92;100923.91;5045667;28;20057;-88
2021/07/02 04:45:38;;;;;;;32.47;15.27;;;;;;;14.86;99.73;100924.75;5018764;28;20443;-86
2021/07/02 04:48:05;;;;;;;29.52;14.52;;;;;;;14.91;99.72;100926.41;5040983;28;20505;-86
2021/07/02 04:50:37;;;;;;;27.50;13.80;;;;;;;14.93;99.18;100921.94;5060280;28;20047;-86
2021/07/02 04:53:05;;;;;;;29.60;13.02;;;;;;;14.96;99.49;100921.91;5045453;28;20502;-87
2021/07/02 04:55:31;;;;;;;32.70;16.00;;;;;;;14.98;99.20;100927.97;5049206;28;20056;-90
2021/07/02 04:57:58;;;;;;;26.75;14.68;;;;;;;15.02;99.21;100924.41;5028767;28;20048;-87
2021/07/02 05:00:27;;;;;;;31.95;15.60;;;;;;;15.06;98.89;100928.69;5033394;28;20102;-87
2021/07/02 05:02:54;;;;;;;29.05;14.80;;;;;;;15.08;98.44;100926.88;5051361;28;20047;-89
2021/07/02 05:05:20;;;;;;;31.33;14.40;;;;;;;15.09;98.40;100930.41;5045241;28;20033;-87
2021/07/02 05:07:49;;;;;;;28.67;13.93;;;;;;;15.09;98.40;100928.63;5054522;28;20055;-95
2021/07/02 05:10:16;;;;;;;20.58;14.13;;;;;;;15.08;98.29;100932.16;5063606;28;20123;-86
2021/07/02 05:12:42;;;;;;;26.23;14.95;;;;;;;15.08;98.18;100932.16;5035611;28;20076;-88
2021/07/02 05:15:11;;;;;;;29.02;14.45;;;;;;;15.08;98.32;100932.16;5049006;28;20032;-87
2021/07/02 05:17:43;;;;;;;28.05;14.30;;;;;;;15.11;97.97;100937.38;5067206;28;20037;-87
2021/07/02 05:20:11;;;;;;;31.27;13.23;;;;;;;15.15;97.95;100935.53;5036418;28;20066;-88
2021/07/02 05:22:39;;;;;;;34.28;15.63;;;;;;;15.13;97.10;100940.81;5040868;28;20116;-87
2021/07/02 05:25:08;;;;;;;25.63;14.45;;;;;;;15.11;97.74;100941.75;5046985;28;20551;-90
2021/07/02 05:27:35;;;;;;;25.25;14.57;;;;;;;15.12;97.30;100939.09;5030443;28;20070;-88
2021/07/02 05:30:06;;;;;;;28.55;14.50;;;;;;;15.16;96.93;100943.41;5055361;28;20127;-89
2021/07/02 05:32:33;;;;;;;26.88;14.75;;;;;;;15.18;96.71;100944.22;5028894;28;20064;-88
2021/07/02 05:35:01;;;;;;;28.83;15.80;;;;;;;15.20;95.77;100947.69;5055435;28;20479;-87
2021/07/02 05:37:33;;;;;;;26.10;14.35;;;;;;;15.23;96.21;100944.13;5045207;28;20037;-87
2021/07/02 05:40:00;;;;;;;30.48;15.35;;;;;;;15.27;95.93;100944.91;5047719;28;20056;-89
2021/07/02 05:42:27;;;;;;;34.55;15.60;;;;;;;15.28;95.41;100952.78;5050835;28;20051;-90
2021/07/02 05:44:56;;;;;;;30.73;15.27;;;;;;;15.29;94.96;100954.53;5054576;28;20119;-85
2021/07/02 05:47:24;;;;;;;25.95;14.40;;;;;;;15.32;94.50;100953.59;5038394;28;20071;-86
2021/07/02 05:49:53;;;;;;;25.92;13.77;;;;;;;15.28;94.07;100962.44;5036502;28;20172;-87
2021/07/02 05:52:19;;;;;;;21.27;13.30;;;;;;;15.29;94.31;100964.19;5048728;28;20044;-87
2021/07/02 05:54:48;;;;;;;20.05;12.18;;;;;;;15.30;94.43;100968.56;5067254;28;20056;-87
2021/07/02 05:57:16;;;;;;;24.05;11.98;;;;;;;15.33;94.41;100963.22;5023283;28;20087;-89
2021/07/02 05:59:43;;;;;;;22.58;12.45;;;;;;;15.34;94.24;100972.88;5065544;28;20055;-87
2021/07/02 06:02:11;;;;;;;23.58;12.40;;;;;;;15.33;94.21;100982.56;5037460;28;20080;-87
2021/07/02 06:04:39;;;;;;;26.02;13.63;;;;;;;15.32;93.82;100990.53;5064973;28;20036;-89
2021/07/02 06:07:10;;;;;;;21.45;12.48;;;;;;;15.27;94.01;100985.34;5054795;28;20093;-84
2021/07/02 06:09:37;;;;;;;30.10;15.25;;;;;;;15.23;93.80;100988.94;5056150;28;20471;-86
2021/07/02 06:12:06;;;;;;;34.15;14.70;;;;;;;15.20;93.79;100989.88;5038987;28;20059;-85
2021/07/02 06:14:33;;;;;;;25.02;15.43;;;;;;;15.19;93.83;100998.69;5053835;28;20107;-86
2021/07/02 06:17:01;;;;;;;22.73;14.50;;;;;;;15.15;94.25;100991.75;5037344;28;20502;-84
2021/07/02 06:19:30;;;;;;;22.52;14.10;;;;;;;15.15;94.20;100997.03;5066223;28;20041;-84
2021/07/02 06:21:59;;;;;;;24.50;14.57;;;;;;;15.17;94.44;100997.84;5043137;28;20036;-86
2021/07/02 06:24:31;;;;;;;22.02;13.23;;;;;;;15.23;93.98;100991.59;5049342;28;20123;-86
2021/07/02 06:26:58;;;;;;;25.25;13.48;;;;;;;15.26;93.96;100998.56;5048380;28;20063;-85
2021/07/02 06:29:26;;;;;;;22.92;13.45;;;;;;;15.30;93.90;101001.06;5057139;28;20056;-85
2021/07/02 06:31:53;;;;;;;21.00;13.20;;;;;;;15.35;93.53;101003.63;5015878;28;20045;-91
2021/07/02 06:34:29;;;;;;;20.30;12.73;;;;;;;15.32;92.84;100994.00;5030721;28;20152;-86
2021/07/02 06:37:04;;;;;;;27.20;13.02;;;;;;;15.32;93.12;101001.06;5055144;28;20049;-93
2021/07/02 06:39:31;;;;;;;20.05;12.88;;;;;;;15.27;93.39;100995.03;5056735;28;20039;-91
2021/07/02 06:42:00;;;;;;;23.60;13.65;;;;;;;15.31;93.32;101005.47;5059624;28;20128;-84
2021/07/02 06:44:28;;;;;;;24.77;13.05;;;;;;;15.35;92.82;100998.34;5044729;28;20049;-88
2021/07/02 06:46:56;;;;;;;26.05;13.95;;;;;;;15.44;92.91;101008.69;5043003;28;20057;-87
2021/07/02 06:49:22;;;;;;;20.23;13.18;;;;;;;15.54;92.58;101001.44;5065738;28;20040;-86
2021/07/02 06:51:50;;;;;;;24.80;14.98;;;;;;;15.52;92.25;101000.59;5034720;28;20292;-86
2021/07/02 06:54:17;;;;;;;23.48;14.05;;;;;;;15.55;92.25;100995.22;5025602;28;20127;-88
2021/07/02 06:57:01;;;;;;;23.55;14.20;;;;;;;15.60;91.61;100997.75;5040998;28;20115;-86
2021/07/02 06:59:37;;;;;;;21.90;14.20;;;;;;;15.62;91.76;100999.47;5048508;28;20041;-86
2021/07/02 07:02:04;;;;;;;21.63;13.25;;;;;;;15.72;91.44;101000.09;5040842;28;20068;-86
2021/07/02 07:04:39;;;;;;;26.15;12.73;;;;;;;15.87;90.87;100990.97;5017333;28;20052;-88
2021/07/02 07:07:10;;;;;;;21.17;12.10;;;;;;;16.02;89.90;100998.50;5045723;28;20041;-85
2021/07/02 07:09:38;;;;;;;21.83;12.52;;;;;;;16.12;88.96;100998.25;5025956;28;20055;-86
2021/07/02 07:12:06;;;;;;;21.13;12.00;;;;;;;16.17;88.79;100991.91;5071692;28;20073;-86
2021/07/02 07:14:34;;;;;;;21.48;12.90;;;;;;;16.31;88.34;100995.94;5069048;28;20040;-86
2021/07/02 07:17:03;;;;;;;18.63;12.52;;;;;;;16.42;87.67;100999.19;5071446;28;20054;-88
2021/07/02 07:19:31;;;;;;;20.58;12.77;;;;;;;16.57;86.61;100999.66;5053360;28;20653;-87
2021/07/02 07:21:58;;;;;;;18.73;10.95;;;;;;;16.58;86.47;100993.47;5066593;28;20047;-86
2021/07/02 07:24:25;;;;;;;17.17;10.75;;;;;;;16.58;85.10;100996.09;5077434;28;20040;-87
2021/07/02 07:26:59;;;;;;;20.25;10.02;;;;;;;16.59;85.57;100984.63;5068523;28;20040;-88
2021/07/02 07:29:35;;;;;;;17.90;10.20;;;;;;;16.58;85.09;100991.66;5066332;28;20425;-88
2021/07/02 07:32:05;;;;;;;13.73;9.15;;;;;;;16.58;85.81;100994.31;5066773;28;20143;-87
2021/07/02 07:34:44;;;;;;;18.45;11.52;;;;;;;16.53;84.75;100996.22;5081121;28;20151;-85
2021/07/02 07:37:17;;;;;;;13.43;9.80;;;;;;;16.43;85.73;101000.91;5072267;28;20028;-85
2021/07/02 07:39:53;;;;;;;15.93;9.63;;;;;;;16.35;85.87;101000.28;5056435;28;20593;-84
2021/07/02 07:42:28;;;;;;;20.13;10.35;;;;;;;16.21;86.45;101006.78;5071393;28;20047;-87
2021/07/02 07:45:06;;;;;;;16.85;10.45;;;;;;;16.20;87.09;101006.81;5052801;28;20135;-85
2021/07/02 07:47:39;;;;;;;16.40;10.23;;;;;;;16.20;87.26;101015.63;5069914;28;20055;-85
2021/07/02 07:50:15;;;;;;;22.02;12.00;;;;;;;16.31;87.22;101011.81;5080129;28;20054;-86
2021/07/02 07:52:50;;;;;;;20.35;10.05;;;;;;;16.43;86.79;101011.47;5093380;28;20066;-90
2021/07/02 07:55:20;;;;;;;20.90;10.60;;;;;;;16.50;86.54;101009.53;5104508;28;20393;-87
2021/07/02 07:57:53;;;;;;;17.80;10.63;;;;;;;16.43;86.13;101011.47;5047149;28;20052;-86
2021/07/02 08:00:27;;;;;;;16.77;10.27;;;;;;;16.37;86.26;101023.09;5055145;28;20043;-84
2021/07/02 08:02:53;;;;;;;20.90;10.15;;;;;;;16.36;86.22;101020.47;5086850;28;20062;-90
2021/07/02 08:05:21;;;;;;;17.60;9.32;;;;;;;16.32;86.64;101018.81;5095400;28;20076;-89
2021/07/02 08:07:49;;;;;;;20.90;11.48;;;;;;;16.34;86.10;101019.66;5066760;28;20615;-85
2021/07/02 08:10:18;;;;;;;23.90;10.82;;;;;;;16.35;86.22;101016.13;5050689;28;20485;-93
2021/07/02 08:12:47;;;;;;;18.95;9.90;;;;;;;16.38;86.13;101021.31;5092078;28;20040;-90
2021/07/02 08:15:29;;;;;;;22.00;12.48;;;;;;;16.50;86.01;101015.69;5067848;28;20044;-86
2021/07/02 08:18:12;;;;;;;22.85;10.63;;;;;;;16.73;85.34;101008.03;5061533;28;20036;-85
2021/07/02 08:20:46;;;;;;;22.87;10.80;;;;;;;17.03;83.98;101006.28;5063081;28;20414;-85
2021/07/02 08:23:13;;;;;;;18.15;10.70;;;;;;;17.35;82.48;101009.69;5052797;28;20040;-87
2021/07/02 08:25:40;;;;;;;23.80;11.20;;;;;;;17.78;80.78;101010.09;5045754;28;20036;-86
2021/07/02 08:30:57;;;;;;;16.27;9.23;;;;;;;18.25;77.92;101007.63;5053749;28;20048;-86
2021/07/02 08:33:38;;;;;;;20.90;9.30;;;;;;;18.41;75.39;101013.25;5041915;28;20071;-86
2021/07/02 08:36:06;;;;;;;18.40;9.57;;;;;;;18.51;76.62;101014.66;5052990;28;20655;-85
2021/07/02 08:38:36;;;;;;;17.58;10.15;;;;;;;18.51;76.10;101019.94;5031083;28;20045;-84
2021/07/02 08:41:12;;;;;;;21.05;9.05;;;;;;;18.40;76.41;101023.91;5052870;28;20041;-84
2021/07/02 08:43:43;;;;;;;13.40;9.30;;;;;;;18.32;76.51;101022.38;5046207;28;20072;-85
2021/07/02 08:46:15;;;;;;;16.02;9.75;;;;;;;18.39;75.99;101019.53;5030177;28;20057;-86
2021/07/02 08:48:48;;;;;;;14.60;8.73;;;;;;;18.49;75.62;101013.84;5021363;28;20510;-91
2021/07/02 08:51:28;;;;;;;15.27;8.10;;;;;;;18.65;74.55;101021.22;5037653;28;20052;-85
2021/07/02 08:53:57;;;;;;;12.38;7.47;;;;;;;18.70;74.05;101011.31;5056698;28;20162;-85
2021/07/02 08:56:26;;;;;;;17.65;7.88;;;;;;;18.79;74.58;101018.06;5052663;28;20044;-87
2021/07/02 08:58:55;;;;;;;15.02;7.82;;;;;;;18.95;73.02;101018.38;5043151;28;20033;-85
2021/07/02 09:01:42;;;;;;;9.25;6.63;;;;;;;19.13;72.02;101019.47;5041964;28;20053;-87
2021/07/02 09:04:16;;;;;;;10.90;5.00;;;;;;;19.60;71.28;101013.19;5065326;28;20036;-85
2021/07/02 09:06:45;;;;;;;11.88;5.28;;;;;;;19.88;69.65;101017.38;5058657;28;20091;-85
2021/07/02 09:09:13;;;;;;;9.43;5.47;;;;;;;19.72;68.88;101019.78;5056927;28;20399;-86
2021/07/02 09:11:41;;;;;;;11.82;7.18;;;;;;;19.41;69.41;101026.31;5038057;28;20120;-88
2021/07/02 09:14:24;;;;;;;13.00;8.82;;;;;;;19.14;69.18;101024.72;5027392;28;20550;-87
2021/07/02 09:16:53;;;;;;;14.63;8.13;;;;;;;19.05;69.00;101021.56;5050410;28;20061;-86
2021/07/02 09:19:28;;;;;;;13.77;8.95;;;;;;;19.06;68.66;101031.22;5049294;28;20394;-85
2021/07/02 09:22:16;;;;;;;17.10;8.40;;;;;;;18.78;68.83;101033.09;5048641;28;20046;-84
2021/07/02 09:24:48;;;;;;;11.05;7.93;;;;;;;18.53;70.31;101030.50;5049048;28;20048;-85
2021/07/02 09:27:28;;;;;;;17.73;8.65;;;;;;;18.56;70.05;101029.53;5062726;28;20052;-86
2021/07/02 09:30:12;;;;;;;14.82;7.88;;;;;;;18.95;68.38;101035.16;5067279;28;20037;-85
2021/07/02 09:32:51;;;;;;;11.45;8.05;;;;;;;19.18;68.00;101036.06;5063990;28;20025;-91
2021/07/02 09:35:47;;;;;;;17.38;8.35;;;;;;;19.83;66.63;101037.03;5088036;28;20031;-85
2021/07/02 09:38:19;;;;;;;13.77;8.43;;;;;;;20.50;64.33;101039.50;5051752;28;20416;-84
2021/07/02 09:40:49;;;;;;;12.30;8.27;;;;;;;20.58;62.26;101032.03;5065357;28;20069;-85
2021/07/02 09:43:20;;;;;;;11.23;7.60;;;;;;;20.55;63.52;101037.50;5080153;28;20043;-85
2021/07/02 09:45:56;;;;;;;13.40;7.93;;;;;;;20.55;62.20;101032.19;5066287;28;20406;-84
2021/07/02 09:49:01;;;;;;;13.48;7.60;;;;;;;20.60;61.78;101043.47;5080885;28;20480;-88
2021/07/02 09:51:31;;;;;;;14.30;7.50;;;;;;;20.37;62.38;101051.63;5069079;28;20513;-87
2021/07/02 09:54:08;;;;;;;14.00;7.85;;;;;;;20.02;63.56;101044.22;5063401;28;20029;-85
2021/07/02 09:56:37;;;;;;;14.82;7.75;;;;;;;20.02;64.95;101049.53;5072771;28;20056;-88
2021/07/02 09:59:18;;;;;;;10.02;7.00;;;;;;;20.13;64.79;101039.31;5043180;28;20051;-87
2021/07/02 10:01:47;;;;;;;18.35;8.45;;;;;;;20.10;64.11;101041.25;5049863;28;20060;-88
2021/07/02 10:04:21;;;;;;;11.38;7.80;;;;;;;19.87;65.70;101044.84;5060230;28;20041;-87
2021/07/02 10:07:14;;;;;;;13.18;7.68;;;;;;;19.93;65.89;101052.59;5073405;28;20048;-85
2021/07/02 10:09:41;;;;;;;13.23;8.65;;;;;;;19.95;65.80;101056.06;5040530;28;20056;-85
2021/07/02 10:12:13;;;;;;;13.23;8.55;;;;;;;19.70;66.69;101046.41;5081061;28;20100;-84
2021/07/02 10:14:40;;;;;;;10.93;8.13;;;;;;;19.48;67.44;101062.34;5087170;28;20136;-85
2021/07/02 10:17:14;;;;;;;15.98;8.30;;;;;;;19.14;68.65;101055.69;5061321;28;20044;-88
2021/07/02 10:19:42;;;;;;;14.20;8.55;;;;;;;19.03;69.59;101053.44;5065165;28;20470;-86
2021/07/02 10:22:18;;;;;;;12.20;8.68;;;;;;;18.99;70.20;101054.47;5072938;28;20058;-87
2021/07/02 10:24:52;;;;;;;15.88;9.55;;;;;;;18.91;70.15;101056.56;5088279;28;20157;-86
2021/07/02 10:27:20;;;;;;;12.63;8.23;;;;;;;19.04;69.61;101059.63;5054209;28;20044;-87
2021/07/02 10:29:47;;;;;;;13.68;8.70;;;;;;;19.22;69.41;101063.38;5068656;28;20098;-86
2021/07/02 10:32:15;;;;;;;12.85;8.57;;;;;;;19.48;67.96;101070.31;5068007;28;20051;-87
2021/07/02 10:34:51;;;;;;;10.88;8.10;;;;;;;19.73;67.31;101069.31;5057361;28;20421;-88
2021/07/02 10:37:20;;;;;;;13.02;8.52;;;;;;;19.98;66.21;101071.84;5050999;28;20541;-88
2021/07/02 10:39:48;;;;;;;14.75;8.50;;;;;;;20.20;65.15;101078.94;5048015;28;20036;-86
2021/07/02 10:42:17;;;;;;;18.08;10.75;;;;;;;20.25;65.08;101080.47;5049689;28;20047;-87
2021/07/02 10:45:33;;;;;;;12.23;8.38;;;;;;;20.13;65.48;101075.69;5048552;28;20070;-91
2021/07/02 10:48:24;;;;;;;;;;;;;;;;;;;;;
2021/07/02 10:50:56;;;;;;;11.48;8.25;;;;;;;20.68;63.12;101075.06;5049087;28;20062;-86
2021/07/02 10:53:31;;;;;;;11.18;6.55;;;;;;;21.35;60.57;101066.72;5044858;28;20040;-84
2021/07/02 10:55:59;;;;;;;11.20;6.95;;;;;;;21.63;59.98;101072.47;5056023;28;20505;-87
2021/07/02 10:58:55;;;;;;;10.75;7.18;;;;;;;21.77;58.42;101065.59;5083622;28;20127;-87
2021/07/02 11:01:21;;;;;;;9.20;7.50;;;;;;;21.98;58.34;101064.53;5089482;28;20032;-95
2021/07/02 11:03:50;;;;;;;11.65;6.63;;;;;;;22.08;58.28;101072.06;5101202;28;20027;-88
2021/07/02 11:06:40;;;;;;;12.10;6.70;;;;;;;22.32;56.64;101072.63;5072447;28;20033;-86
2021/07/02 11:09:11;;;;;;;8.38;6.65;;;;;;;22.33;56.21;101070.81;5054942;28;20044;-86
2021/07/02 11:12:12;;;;;;;11.23;6.78;;;;;;;21.99;56.79;101078.72;5032098;28;20067;-86
2021/07/02 11:14:57;;;;;;;9.35;6.75;;;;;;;21.81;57.07;101077.84;5033921;28;20127;-87
2021/07/02 11:17:44;;;;;;;10.48;6.57;;;;;;;21.59;58.69;101078.03;5080388;28;20071;-93
2021/07/02 11:20:10;;;;;;;11.80;7.38;;;;;;;21.30;59.35;101078.47;5071369;28;20047;-90
2021/07/02 11:22:57;;;;;;;10.52;7.60;;;;;;;21.01;60.63;101070.97;5072028;28;20043;-85
2021/07/02 11:25:45;;;;;;;12.82;7.30;;;;;;;20.85;61.78;101079.66;5061804;28;20393;-87
2021/07/02 11:28:15;;;;;;;12.65;7.28;;;;;;;20.88;61.59;101076.00;5063030;28;20052;-88
2021/07/02 11:30:46;;;;;;;10.82;7.30;;;;;;;21.11;61.42;101073.13;5047703;28;20064;-87
2021/07/02 11:33:13;;;;;;;10.18;7.10;;;;;;;21.42;60.24;101081.47;5038595;28;20041;-88
2021/07/02 11:35:43;;;;;;;11.13;7.93;;;;;;;21.72;59.87;101084.50;5065299;28;20032;-86
2021/07/02 11:38:19;;;;;;;11.55;7.22;;;;;;;21.92;58.07;101083.50;5051113;28;20041;-86
2021/07/02 11:40:56;;;;;;;10.82;7.28;;;;;;;21.77;57.00;101069.16;5048478;28;20033;-87
2021/07/02 11:43:41;;;;;;;9.27;7.35;;;;;;;21.61;58.46;101085.00;5057204;28;20044;-86
2021/07/02 11:46:18;;;;;;;8.20;6.40;;;;;;;21.83;57.97;101085.78;5061140;28;20055;-92
2021/07/02 11:48:54;;;;;;;12.60;6.82;;;;;;;22.17;57.41;101078.75;5068680;28;20040;-89
2021/07/02 11:51:24;;;;;;;8.25;7.25;;;;;;;22.34;56.65;101072.56;5056878;28;20047;-87
2021/07/02 11:54:15;;;;;;;10.43;7.65;;;;;;;22.28;56.86;101082.59;5067588;28;20537;-85
2021/07/02 11:56:43;;;;;;;11.45;8.30;;;;;;;22.20;57.27;101075.91;5052892;28;20157;-88
2021/07/02 11:59:13;;;;;;;23.98;9.07;;;;;;;21.69;58.17;101075.78;5059673;28;20063;-88
2021/07/02 12:01:49;;;;;;;11.02;7.53;;;;;;;21.17;60.04;101073.78;5050438;28;20052;-86
2021/07/02 12:04:23;;;;;;;10.55;7.43;;;;;;;20.81;61.65;101083.41;5044893;28;20072;-89